sensor_id;sensor_type;location;lat;lon;timestamp;temperature;humidity
810;DHT22;387;48.772;9.186;2023-02-15T00:01:40;1.90;92.20
810;DHT22;387;48.772;9.186;2023-02-15T00:04:06;1.80;92.20
810;DHT22;387;48.772;9.186;2023-02-15T00:06:33;1.70;92.30
810;DHT22;387;48.772;9.186;2023-02-15T00:08:59;1.70;92.50
810;DHT22;387;48.772;9.186;2023-02-15T00:11:25;1.70;92.60
810;DHT22;387;48.772;9.186;2023-02-15T00:16:39;1.70;92.70
810;DHT22;387;48.772;9.186;2023-02-15T00:19:05;1.70;92.70
810;DHT22;387;48.772;9.186;2023-02-15T00:21:32;1.70;92.60
810;DHT22;387;48.772;9.186;2023-02-15T00:23:59;1.70;92.60
810;DHT22;387;48.772;9.186;2023-02-15T00:26:26;1.70;92.50
810;DHT22;387;48.772;9.186;2023-02-15T00:28:51;1.60;92.50
810;DHT22;387;48.772;9.186;2023-02-15T00:31:17;1.50;92.40
810;DHT22;387;48.772;9.186;2023-02-15T00:33:43;1.50;92.50
810;DHT22;387;48.772;9.186;2023-02-15T00:36:10;1.50;92.50
810;DHT22;387;48.772;9.186;2023-02-15T00:38:35;1.50;92.60
810;DHT22;387;48.772;9.186;2023-02-15T00:41:03;1.50;92.70
810;DHT22;387;48.772;9.186;2023-02-15T00:43:30;1.40;92.70
810;DHT22;387;48.772;9.186;2023-02-15T00:45:56;1.40;92.80
810;DHT22;387;48.772;9.186;2023-02-15T00:48:22;1.40;92.80
810;DHT22;387;48.772;9.186;2023-02-15T00:50:56;1.40;92.80
810;DHT22;387;48.772;9.186;2023-02-15T00:53:22;1.40;92.70
810;DHT22;387;48.772;9.186;2023-02-15T00:55:48;1.40;92.80
810;DHT22;387;48.772;9.186;2023-02-15T00:58:14;1.40;92.70
810;DHT22;387;48.772;9.186;2023-02-15T01:00:42;1.40;92.60
810;DHT22;387;48.772;9.186;2023-02-15T01:03:09;1.40;92.70
810;DHT22;387;48.772;9.186;2023-02-15T01:05:35;1.30;92.70
810;DHT22;387;48.772;9.186;2023-02-15T01:08:00;1.30;92.70
810;DHT22;387;48.772;9.186;2023-02-15T01:10:27;1.30;92.70
810;DHT22;387;48.772;9.186;2023-02-15T01:12:54;1.30;92.80
810;DHT22;387;48.772;9.186;2023-02-15T01:15:20;1.30;92.80
810;DHT22;387;48.772;9.186;2023-02-15T01:17:45;1.30;93.00
810;DHT22;387;48.772;9.186;2023-02-15T01:20:17;1.30;92.80
810;DHT22;387;48.772;9.186;2023-02-15T01:22:43;1.30;92.80
810;DHT22;387;48.772;9.186;2023-02-15T01:25:08;1.30;92.80
810;DHT22;387;48.772;9.186;2023-02-15T01:27:34;1.30;92.80
810;DHT22;387;48.772;9.186;2023-02-15T01:30:00;1.30;92.80
810;DHT22;387;48.772;9.186;2023-02-15T01:32:25;1.20;93.00
810;DHT22;387;48.772;9.186;2023-02-15T01:34:52;1.20;93.10
810;DHT22;387;48.772;9.186;2023-02-15T01:37:18;1.30;93.10
810;DHT22;387;48.772;9.186;2023-02-15T01:39:43;1.30;93.20
810;DHT22;387;48.772;9.186;2023-02-15T01:42:12;1.30;93.10
810;DHT22;387;48.772;9.186;2023-02-15T01:47:39;1.30;93.00
810;DHT22;387;48.772;9.186;2023-02-15T01:52:52;1.20;92.80
810;DHT22;387;48.772;9.186;2023-02-15T01:55:22;1.10;92.90
810;DHT22;387;48.772;9.186;2023-02-15T01:57:49;1.10;93.00
810;DHT22;387;48.772;9.186;2023-02-15T02:00:16;1.20;93.10
810;DHT22;387;48.772;9.186;2023-02-15T02:02:43;1.10;93.00
810;DHT22;387;48.772;9.186;2023-02-15T02:05:10;1.10;93.00
810;DHT22;387;48.772;9.186;2023-02-15T02:07:42;1.10;93.00
810;DHT22;387;48.772;9.186;2023-02-15T02:10:11;1.00;92.90
810;DHT22;387;48.772;9.186;2023-02-15T02:12:39;1.00;92.90
810;DHT22;387;48.772;9.186;2023-02-15T02:15:06;1.00;92.80
810;DHT22;387;48.772;9.186;2023-02-15T02:29:30;0.90;93.00
810;DHT22;387;48.772;9.186;2023-02-15T02:32:09;0.90;93.00
810;DHT22;387;48.772;9.186;2023-02-15T02:34:56;1.00;93.10
810;DHT22;387;48.772;9.186;2023-02-15T02:37:48;1.00;93.00
810;DHT22;387;48.772;9.186;2023-02-15T02:40:24;1.00;92.90
810;DHT22;387;48.772;9.186;2023-02-15T02:43:00;0.90;92.80
810;DHT22;387;48.772;9.186;2023-02-15T02:45:34;0.80;92.70
810;DHT22;387;48.772;9.186;2023-02-15T02:48:14;0.80;92.70
810;DHT22;387;48.772;9.186;2023-02-15T02:50:41;0.80;92.70
810;DHT22;387;48.772;9.186;2023-02-15T02:53:08;0.80;92.70
810;DHT22;387;48.772;9.186;2023-02-15T02:55:46;0.70;92.80
810;DHT22;387;48.772;9.186;2023-02-15T02:58:29;0.70;92.80
810;DHT22;387;48.772;9.186;2023-02-15T03:01:21;0.70;92.70
810;DHT22;387;48.772;9.186;2023-02-15T03:04:17;0.70;92.70
810;DHT22;387;48.772;9.186;2023-02-15T03:06:48;0.60;92.70
810;DHT22;387;48.772;9.186;2023-02-15T03:09:27;0.60;92.80
810;DHT22;387;48.772;9.186;2023-02-15T03:12:13;0.60;92.90
810;DHT22;387;48.772;9.186;2023-02-15T03:14:41;0.60;92.90
810;DHT22;387;48.772;9.186;2023-02-15T03:17:08;0.60;93.00
810;DHT22;387;48.772;9.186;2023-02-15T03:19:36;0.60;93.10
810;DHT22;387;48.772;9.186;2023-02-15T03:22:08;0.60;93.10
810;DHT22;387;48.772;9.186;2023-02-15T03:24:39;0.60;93.10
810;DHT22;387;48.772;9.186;2023-02-15T03:27:10;0.50;93.10
810;DHT22;387;48.772;9.186;2023-02-15T03:29:37;0.50;93.20
810;DHT22;387;48.772;9.186;2023-02-15T03:32:05;0.60;93.30
810;DHT22;387;48.772;9.186;2023-02-15T03:34:32;0.60;93.30
810;DHT22;387;48.772;9.186;2023-02-15T03:39:40;0.50;93.30
810;DHT22;387;48.772;9.186;2023-02-15T03:42:12;0.50;93.30
810;DHT22;387;48.772;9.186;2023-02-15T03:45:02;0.50;93.30
810;DHT22;387;48.772;9.186;2023-02-15T03:47:36;0.50;93.30
810;DHT22;387;48.772;9.186;2023-02-15T03:50:09;0.50;93.30
810;DHT22;387;48.772;9.186;2023-02-15T03:52:57;0.50;93.40
810;DHT22;387;48.772;9.186;2023-02-15T03:55:24;0.50;93.40
810;DHT22;387;48.772;9.186;2023-02-15T03:57:50;0.50;93.40
810;DHT22;387;48.772;9.186;2023-02-15T04:00:37;0.50;93.30
810;DHT22;387;48.772;9.186;2023-02-15T04:03:40;0.50;93.30
810;DHT22;387;48.772;9.186;2023-02-15T04:06:07;0.40;93.20
810;DHT22;387;48.772;9.186;2023-02-15T04:08:33;0.40;93.20
810;DHT22;387;48.772;9.186;2023-02-15T04:11:17;0.40;93.20
810;DHT22;387;48.772;9.186;2023-02-15T04:13:42;0.30;93.10
810;DHT22;387;48.772;9.186;2023-02-15T04:16:08;0.30;93.20
810;DHT22;387;48.772;9.186;2023-02-15T04:18:40;0.30;93.20
810;DHT22;387;48.772;9.186;2023-02-15T04:21:25;0.30;93.10
810;DHT22;387;48.772;9.186;2023-02-15T04:24:11;0.30;93.10
810;DHT22;387;48.772;9.186;2023-02-15T04:26:55;0.20;93.20
810;DHT22;387;48.772;9.186;2023-02-15T04:29:22;0.20;93.20
810;DHT22;387;48.772;9.186;2023-02-15T04:31:48;0.20;93.20
810;DHT22;387;48.772;9.186;2023-02-15T04:34:14;0.20;93.20
810;DHT22;387;48.772;9.186;2023-02-15T04:36:40;0.10;93.10
810;DHT22;387;48.772;9.186;2023-02-15T04:39:07;0.10;93.00
810;DHT22;387;48.772;9.186;2023-02-15T04:41:33;0.10;93.10
810;DHT22;387;48.772;9.186;2023-02-15T04:43:59;0.10;93.10
810;DHT22;387;48.772;9.186;2023-02-15T04:46:26;0.10;93.00
810;DHT22;387;48.772;9.186;2023-02-15T04:48:51;0.00;93.00
810;DHT22;387;48.772;9.186;2023-02-15T04:51:17;0.00;93.00
810;DHT22;387;48.772;9.186;2023-02-15T04:53:43;0.00;93.00
810;DHT22;387;48.772;9.186;2023-02-15T04:56:08;0.00;93.10
810;DHT22;387;48.772;9.186;2023-02-15T04:58:34;0.00;93.20
810;DHT22;387;48.772;9.186;2023-02-15T05:01:01;0.00;93.10
810;DHT22;387;48.772;9.186;2023-02-15T05:03:26;0.00;93.10
810;DHT22;387;48.772;9.186;2023-02-15T05:05:52;0.00;93.10
810;DHT22;387;48.772;9.186;2023-02-15T05:08:17;-0.10;93.10
810;DHT22;387;48.772;9.186;2023-02-15T05:10:43;-0.10;93.10
810;DHT22;387;48.772;9.186;2023-02-15T05:13:08;-0.10;93.20
810;DHT22;387;48.772;9.186;2023-02-15T05:15:34;-0.10;93.20
810;DHT22;387;48.772;9.186;2023-02-15T05:18:00;-0.10;93.30
810;DHT22;387;48.772;9.186;2023-02-15T05:20:27;0.10;93.50
810;DHT22;387;48.772;9.186;2023-02-15T05:22:55;0.00;93.40
810;DHT22;387;48.772;9.186;2023-02-15T05:25:20;0.10;93.40
810;DHT22;387;48.772;9.186;2023-02-15T05:28:07;0.00;93.30
810;DHT22;387;48.772;9.186;2023-02-15T05:30:46;0.00;93.20
810;DHT22;387;48.772;9.186;2023-02-15T05:33:12;0.00;93.20
810;DHT22;387;48.772;9.186;2023-02-15T05:35:38;0.00;93.20
810;DHT22;387;48.772;9.186;2023-02-15T05:38:03;0.00;93.10
810;DHT22;387;48.772;9.186;2023-02-15T05:40:29;-0.10;93.00
810;DHT22;387;48.772;9.186;2023-02-15T05:42:56;-0.10;93.00
810;DHT22;387;48.772;9.186;2023-02-15T05:45:21;-0.10;92.90
810;DHT22;387;48.772;9.186;2023-02-15T05:47:47;0.00;92.90
810;DHT22;387;48.772;9.186;2023-02-15T05:50:13;-0.10;92.80
810;DHT22;387;48.772;9.186;2023-02-15T05:52:38;-0.10;92.70
810;DHT22;387;48.772;9.186;2023-02-15T05:55:04;-0.10;92.60
810;DHT22;387;48.772;9.186;2023-02-15T05:57:30;-0.20;92.60
810;DHT22;387;48.772;9.186;2023-02-15T05:59:56;-0.20;92.50
810;DHT22;387;48.772;9.186;2023-02-15T06:02:22;-0.20;92.50
810;DHT22;387;48.772;9.186;2023-02-15T06:04:47;-0.20;92.60
810;DHT22;387;48.772;9.186;2023-02-15T06:07:13;-0.30;92.50
810;DHT22;387;48.772;9.186;2023-02-15T06:09:39;-0.50;92.30
810;DHT22;387;48.772;9.186;2023-02-15T06:12:04;-0.60;92.30
810;DHT22;387;48.772;9.186;2023-02-15T06:14:30;-0.70;92.30
810;DHT22;387;48.772;9.186;2023-02-15T06:16:56;-0.70;92.40
810;DHT22;387;48.772;9.186;2023-02-15T06:19:21;-0.70;92.50
810;DHT22;387;48.772;9.186;2023-02-15T06:21:48;-0.70;92.60
810;DHT22;387;48.772;9.186;2023-02-15T06:24:14;-0.70;92.60
810;DHT22;387;48.772;9.186;2023-02-15T06:26:40;-0.80;92.60
810;DHT22;387;48.772;9.186;2023-02-15T06:29:05;-0.80;92.60
810;DHT22;387;48.772;9.186;2023-02-15T06:31:31;-0.80;92.60
810;DHT22;387;48.772;9.186;2023-02-15T06:33:57;-0.90;92.70
810;DHT22;387;48.772;9.186;2023-02-15T06:36:27;-0.90;92.80
810;DHT22;387;48.772;9.186;2023-02-15T06:38:54;-0.80;93.10
810;DHT22;387;48.772;9.186;2023-02-15T06:41:19;-0.80;93.20
810;DHT22;387;48.772;9.186;2023-02-15T06:43:45;-0.70;93.10
810;DHT22;387;48.772;9.186;2023-02-15T06:46:10;-0.70;93.10
810;DHT22;387;48.772;9.186;2023-02-15T06:48:36;-0.70;93.10
810;DHT22;387;48.772;9.186;2023-02-15T06:51:01;-0.70;93.00
810;DHT22;387;48.772;9.186;2023-02-15T06:53:27;-0.70;93.00
810;DHT22;387;48.772;9.186;2023-02-15T06:56:03;-0.70;92.90
810;DHT22;387;48.772;9.186;2023-02-15T06:58:42;-0.70;92.90
810;DHT22;387;48.772;9.186;2023-02-15T07:01:09;-0.70;93.00
810;DHT22;387;48.772;9.186;2023-02-15T07:03:35;-0.70;93.00
810;DHT22;387;48.772;9.186;2023-02-15T07:06:02;-0.70;93.00
810;DHT22;387;48.772;9.186;2023-02-15T07:08:29;-0.60;93.00
810;DHT22;387;48.772;9.186;2023-02-15T07:10:55;-0.70;92.90
810;DHT22;387;48.772;9.186;2023-02-15T07:13:44;-0.60;92.90
810;DHT22;387;48.772;9.186;2023-02-15T07:16:10;-0.70;92.80
810;DHT22;387;48.772;9.186;2023-02-15T07:18:36;-0.70;92.80
810;DHT22;387;48.772;9.186;2023-02-15T07:21:01;-0.70;92.80
810;DHT22;387;48.772;9.186;2023-02-15T07:23:27;-0.80;92.80
810;DHT22;387;48.772;9.186;2023-02-15T07:25:57;-1.00;92.70
810;DHT22;387;48.772;9.186;2023-02-15T07:28:23;-1.00;93.00
810;DHT22;387;48.772;9.186;2023-02-15T07:30:48;-1.10;93.10
810;DHT22;387;48.772;9.186;2023-02-15T07:33:14;-1.10;93.20
810;DHT22;387;48.772;9.186;2023-02-15T07:35:50;-1.20;93.40
810;DHT22;387;48.772;9.186;2023-02-15T07:38:15;-1.20;93.60
810;DHT22;387;48.772;9.186;2023-02-15T07:40:42;-1.10;93.80
810;DHT22;387;48.772;9.186;2023-02-15T07:43:08;-1.00;94.00
810;DHT22;387;48.772;9.186;2023-02-15T07:45:33;-0.90;94.10
810;DHT22;387;48.772;9.186;2023-02-15T07:48:00;-0.90;94.20
810;DHT22;387;48.772;9.186;2023-02-15T07:50:26;-0.90;94.10
810;DHT22;387;48.772;9.186;2023-02-15T07:52:52;-1.00;94.10
810;DHT22;387;48.772;9.186;2023-02-15T07:55:18;-1.10;94.10
810;DHT22;387;48.772;9.186;2023-02-15T07:57:45;-1.10;94.30
810;DHT22;387;48.772;9.186;2023-02-15T08:00:21;-1.10;94.40
810;DHT22;387;48.772;9.186;2023-02-15T08:02:54;-1.10;94.50
810;DHT22;387;48.772;9.186;2023-02-15T08:05:43;-1.00;94.70
810;DHT22;387;48.772;9.186;2023-02-15T08:08:10;-1.00;94.80
810;DHT22;387;48.772;9.186;2023-02-15T08:11:16;-1.00;94.90
810;DHT22;387;48.772;9.186;2023-02-15T08:16:41;-0.90;94.90
810;DHT22;387;48.772;9.186;2023-02-15T08:19:08;-0.90;94.90
810;DHT22;387;48.772;9.186;2023-02-15T08:21:36;-0.80;94.90
810;DHT22;387;48.772;9.186;2023-02-15T08:24:03;-0.80;94.90
810;DHT22;387;48.772;9.186;2023-02-15T08:26:29;-0.60;95.00
810;DHT22;387;48.772;9.186;2023-02-15T08:28:55;-0.50;95.00
810;DHT22;387;48.772;9.186;2023-02-15T08:31:21;-0.40;95.00
810;DHT22;387;48.772;9.186;2023-02-15T08:33:48;-0.20;95.00
810;DHT22;387;48.772;9.186;2023-02-15T08:36:17;-0.10;94.80
810;DHT22;387;48.772;9.186;2023-02-15T08:38:44;0.00;94.70
810;DHT22;387;48.772;9.186;2023-02-15T08:41:17;0.00;94.40
810;DHT22;387;48.772;9.186;2023-02-15T08:43:45;0.10;94.00
810;DHT22;387;48.772;9.186;2023-02-15T08:46:12;0.10;93.70
810;DHT22;387;48.772;9.186;2023-02-15T08:48:38;0.30;93.60
810;DHT22;387;48.772;9.186;2023-02-15T08:51:21;0.30;93.20
810;DHT22;387;48.772;9.186;2023-02-15T08:53:49;0.30;92.90
810;DHT22;387;48.772;9.186;2023-02-15T08:56:17;0.30;92.60
810;DHT22;387;48.772;9.186;2023-02-15T08:58:43;0.30;92.20
810;DHT22;387;48.772;9.186;2023-02-15T09:01:14;0.40;92.20
810;DHT22;387;48.772;9.186;2023-02-15T09:03:43;0.50;92.30
810;DHT22;387;48.772;9.186;2023-02-15T09:06:09;0.60;92.10
810;DHT22;387;48.772;9.186;2023-02-15T09:08:36;0.60;92.00
810;DHT22;387;48.772;9.186;2023-02-15T09:13:31;0.50;91.90
810;DHT22;387;48.772;9.186;2023-02-15T09:16:07;0.60;91.90
810;DHT22;387;48.772;9.186;2023-02-15T09:18:38;0.70;91.90
810;DHT22;387;48.772;9.186;2023-02-15T09:21:09;0.70;91.80
810;DHT22;387;48.772;9.186;2023-02-15T09:23:36;0.70;91.80
810;DHT22;387;48.772;9.186;2023-02-15T09:26:03;0.70;91.60
810;DHT22;387;48.772;9.186;2023-02-15T09:28:29;0.60;91.50
810;DHT22;387;48.772;9.186;2023-02-15T09:30:55;0.60;91.50
810;DHT22;387;48.772;9.186;2023-02-15T09:33:21;0.70;91.50
810;DHT22;387;48.772;9.186;2023-02-15T09:35:47;0.80;91.50
810;DHT22;387;48.772;9.186;2023-02-15T09:38:12;0.90;91.50
810;DHT22;387;48.772;9.186;2023-02-15T09:40:49;1.00;91.50
810;DHT22;387;48.772;9.186;2023-02-15T09:43:29;1.00;91.20
810;DHT22;387;48.772;9.186;2023-02-15T09:46:16;1.10;91.00
810;DHT22;387;48.772;9.186;2023-02-15T09:48:52;1.20;91.00
810;DHT22;387;48.772;9.186;2023-02-15T09:54:33;1.40;90.60
810;DHT22;387;48.772;9.186;2023-02-15T10:00:08;1.50;89.60
810;DHT22;387;48.772;9.186;2023-02-15T10:03:01;1.50;89.50
810;DHT22;387;48.772;9.186;2023-02-15T10:11:15;1.70;89.20
810;DHT22;387;48.772;9.186;2023-02-15T10:27:51;2.40;87.00
810;DHT22;387;48.772;9.186;2023-02-15T10:30:48;2.40;86.60
810;DHT22;387;48.772;9.186;2023-02-15T10:33:41;2.60;86.50
810;DHT22;387;48.772;9.186;2023-02-15T10:39:05;2.70;86.00
810;DHT22;387;48.772;9.186;2023-02-15T10:44:25;3.20;85.20
810;DHT22;387;48.772;9.186;2023-02-15T10:53:13;4.70;82.20
810;DHT22;387;48.772;9.186;2023-02-15T11:01:33;6.80;73.90
810;DHT22;387;48.772;9.186;2023-02-15T11:06:28;6.90;71.00
810;DHT22;387;48.772;9.186;2023-02-15T11:09:04;6.80;71.60
810;DHT22;387;48.772;9.186;2023-02-15T11:11:36;7.00;71.70
810;DHT22;387;48.772;9.186;2023-02-15T11:14:38;7.30;72.40
810;DHT22;387;48.772;9.186;2023-02-15T11:17:12;7.60;70.40
810;DHT22;387;48.772;9.186;2023-02-15T11:19:56;8.10;70.20
810;DHT22;387;48.772;9.186;2023-02-15T11:22:23;8.50;68.90
810;DHT22;387;48.772;9.186;2023-02-15T11:24:50;9.00;69.10
810;DHT22;387;48.772;9.186;2023-02-15T11:27:20;8.90;66.40
810;DHT22;387;48.772;9.186;2023-02-15T11:30:13;9.00;67.30
810;DHT22;387;48.772;9.186;2023-02-15T11:32:44;8.60;66.90
810;DHT22;387;48.772;9.186;2023-02-15T11:37:55;8.40;68.90
810;DHT22;387;48.772;9.186;2023-02-15T11:42:56;9.10;68.50
810;DHT22;387;48.772;9.186;2023-02-15T11:45:28;9.60;66.90
810;DHT22;387;48.772;9.186;2023-02-15T11:47:56;9.90;65.70
810;DHT22;387;48.772;9.186;2023-02-15T11:50:32;9.80;64.80
810;DHT22;387;48.772;9.186;2023-02-15T11:53:00;9.60;65.10
810;DHT22;387;48.772;9.186;2023-02-15T11:55:27;9.30;66.00
810;DHT22;387;48.772;9.186;2023-02-15T11:58:23;9.30;66.30
810;DHT22;387;48.772;9.186;2023-02-15T12:01:17;9.40;66.70
810;DHT22;387;48.772;9.186;2023-02-15T12:03:50;9.70;66.30
810;DHT22;387;48.772;9.186;2023-02-15T12:06:26;9.80;65.30
810;DHT22;387;48.772;9.186;2023-02-15T12:08:59;9.60;65.60
810;DHT22;387;48.772;9.186;2023-02-15T12:11:38;9.80;65.80
810;DHT22;387;48.772;9.186;2023-02-15T12:14:09;9.90;65.70
810;DHT22;387;48.772;9.186;2023-02-15T12:19:31;9.80;65.30
810;DHT22;387;48.772;9.186;2023-02-15T12:21:58;9.70;65.60
810;DHT22;387;48.772;9.186;2023-02-15T12:24:34;9.70;65.80
810;DHT22;387;48.772;9.186;2023-02-15T12:29:40;9.80;65.70
810;DHT22;387;48.772;9.186;2023-02-15T12:33:13;10.00;65.80
810;DHT22;387;48.772;9.186;2023-02-15T12:35:13;10.30;64.50
810;DHT22;387;48.772;9.186;2023-02-15T12:38:02;10.50;64.50
810;DHT22;387;48.772;9.186;2023-02-15T12:40:29;10.70;63.50
810;DHT22;387;48.772;9.186;2023-02-15T12:42:55;10.60;63.20
810;DHT22;387;48.772;9.186;2023-02-15T12:48:17;10.70;63.80
810;DHT22;387;48.772;9.186;2023-02-15T12:50:47;10.80;64.10
810;DHT22;387;48.772;9.186;2023-02-15T12:53:32;10.90;64.20
810;DHT22;387;48.772;9.186;2023-02-15T12:56:00;11.00;63.90
810;DHT22;387;48.772;9.186;2023-02-15T12:58:34;10.90;63.80
810;DHT22;387;48.772;9.186;2023-02-15T13:04:01;11.10;63.80
810;DHT22;387;48.772;9.186;2023-02-15T13:06:31;11.10;63.50
810;DHT22;387;48.772;9.186;2023-02-15T13:09:06;10.90;64.10
810;DHT22;387;48.772;9.186;2023-02-15T13:11:32;11.00;64.20
810;DHT22;387;48.772;9.186;2023-02-15T13:14:23;11.10;64.10
810;DHT22;387;48.772;9.186;2023-02-15T13:16:53;11.30;63.50
810;DHT22;387;48.772;9.186;2023-02-15T13:19:42;11.40;63.50
810;DHT22;387;48.772;9.186;2023-02-15T13:22:13;11.50;62.80
810;DHT22;387;48.772;9.186;2023-02-15T13:24:48;11.50;62.60
810;DHT22;387;48.772;9.186;2023-02-15T13:27:21;11.30;63.20
810;DHT22;387;48.772;9.186;2023-02-15T13:29:51;11.30;63.10
810;DHT22;387;48.772;9.186;2023-02-15T13:32:33;11.30;63.40
810;DHT22;387;48.772;9.186;2023-02-15T13:35:02;11.20;63.90
810;DHT22;387;48.772;9.186;2023-02-15T13:49:06;11.00;65.40
810;DHT22;387;48.772;9.186;2023-02-15T13:51:51;10.90;66.60
810;DHT22;387;48.772;9.186;2023-02-15T14:05:35;11.50;65.30
810;DHT22;387;48.772;9.186;2023-02-15T14:08:29;11.50;64.80
810;DHT22;387;48.772;9.186;2023-02-15T14:11:07;11.40;64.80
810;DHT22;387;48.772;9.186;2023-02-15T14:22:06;11.60;63.90
810;DHT22;387;48.772;9.186;2023-02-15T14:24:54;11.60;64.40
810;DHT22;387;48.772;9.186;2023-02-15T14:30:15;11.70;63.20
810;DHT22;387;48.772;9.186;2023-02-15T14:32:46;11.70;62.60
810;DHT22;387;48.772;9.186;2023-02-15T14:35:15;11.60;61.90
810;DHT22;387;48.772;9.186;2023-02-15T14:48:50;11.50;60.70
810;DHT22;387;48.772;9.186;2023-02-15T14:57:20;11.20;60.90
810;DHT22;387;48.772;9.186;2023-02-15T14:59:40;11.20;61.00
810;DHT22;387;48.772;9.186;2023-02-15T15:02:10;11.10;62.20
810;DHT22;387;48.772;9.186;2023-02-15T15:04:41;11.10;62.50
810;DHT22;387;48.772;9.186;2023-02-15T15:09:43;11.10;62.30
810;DHT22;387;48.772;9.186;2023-02-15T15:14:52;11.10;62.50
810;DHT22;387;48.772;9.186;2023-02-15T15:22:40;11.30;62.30
810;DHT22;387;48.772;9.186;2023-02-15T15:25:40;11.40;62.30
810;DHT22;387;48.772;9.186;2023-02-15T15:27:58;11.50;62.00
810;DHT22;387;48.772;9.186;2023-02-15T15:49:19;11.90;61.50
810;DHT22;387;48.772;9.186;2023-02-15T15:51:45;11.90;61.90
810;DHT22;387;48.772;9.186;2023-02-15T15:56:44;11.80;61.90
810;DHT22;387;48.772;9.186;2023-02-15T15:59:25;11.70;62.20
810;DHT22;387;48.772;9.186;2023-02-15T16:01:51;11.60;62.90
810;DHT22;387;48.772;9.186;2023-02-15T16:04:29;11.40;63.90
810;DHT22;387;48.772;9.186;2023-02-15T16:06:56;11.10;65.10
810;DHT22;387;48.772;9.186;2023-02-15T16:09:26;10.90;65.70
810;DHT22;387;48.772;9.186;2023-02-15T16:11:54;10.70;66.30
810;DHT22;387;48.772;9.186;2023-02-15T16:14:31;10.60;67.00
810;DHT22;387;48.772;9.186;2023-02-15T16:17:02;10.40;67.60
810;DHT22;387;48.772;9.186;2023-02-15T16:19:33;10.20;68.00
810;DHT22;387;48.772;9.186;2023-02-15T16:22:00;10.00;68.90
810;DHT22;387;48.772;9.186;2023-02-15T16:27:22;9.60;70.10
810;DHT22;387;48.772;9.186;2023-02-15T16:29:51;9.40;70.70
810;DHT22;387;48.772;9.186;2023-02-15T16:32:23;9.20;71.10
810;DHT22;387;48.772;9.186;2023-02-15T16:34:55;9.10;71.60
810;DHT22;387;48.772;9.186;2023-02-15T16:37:24;8.90;72.10
810;DHT22;387;48.772;9.186;2023-02-15T16:39:52;8.70;72.40
810;DHT22;387;48.772;9.186;2023-02-15T16:42:18;8.60;73.00
810;DHT22;387;48.772;9.186;2023-02-15T16:45:08;8.40;73.30
810;DHT22;387;48.772;9.186;2023-02-15T16:47:42;8.20;73.60
810;DHT22;387;48.772;9.186;2023-02-15T16:50:18;8.00;74.30
810;DHT22;387;48.772;9.186;2023-02-15T16:52:45;7.80;74.60
810;DHT22;387;48.772;9.186;2023-02-15T16:55:23;7.70;74.80
810;DHT22;387;48.772;9.186;2023-02-15T16:57:50;7.70;75.10
810;DHT22;387;48.772;9.186;2023-02-15T17:00:22;7.50;75.40
810;DHT22;387;48.772;9.186;2023-02-15T17:03:04;7.40;75.50
810;DHT22;387;48.772;9.186;2023-02-15T17:05:45;7.40;75.70
810;DHT22;387;48.772;9.186;2023-02-15T17:08:32;7.30;75.80
810;DHT22;387;48.772;9.186;2023-02-15T17:13:24;7.10;76.10
810;DHT22;387;48.772;9.186;2023-02-15T17:18:43;7.00;76.20
810;DHT22;387;48.772;9.186;2023-02-15T17:21:13;6.90;76.20
810;DHT22;387;48.772;9.186;2023-02-15T17:23:44;6.90;76.20
810;DHT22;387;48.772;9.186;2023-02-15T17:26:24;6.80;76.20
810;DHT22;387;48.772;9.186;2023-02-15T17:28:58;6.80;76.10
810;DHT22;387;48.772;9.186;2023-02-15T17:31:26;6.80;76.10
810;DHT22;387;48.772;9.186;2023-02-15T17:33:54;6.70;75.90
810;DHT22;387;48.772;9.186;2023-02-15T17:36:23;6.70;76.10
810;DHT22;387;48.772;9.186;2023-02-15T17:41:24;6.60;76.50
810;DHT22;387;48.772;9.186;2023-02-15T17:43:50;6.50;76.50
810;DHT22;387;48.772;9.186;2023-02-15T17:46:16;6.50;76.70
810;DHT22;387;48.772;9.186;2023-02-15T17:48:46;6.50;76.70
810;DHT22;387;48.772;9.186;2023-02-15T17:51:13;6.40;76.50
810;DHT22;387;48.772;9.186;2023-02-15T17:53:40;6.40;76.50
810;DHT22;387;48.772;9.186;2023-02-15T17:56:05;6.40;76.50
810;DHT22;387;48.772;9.186;2023-02-15T17:58:37;6.30;76.70
810;DHT22;387;48.772;9.186;2023-02-15T18:01:06;6.20;76.70
810;DHT22;387;48.772;9.186;2023-02-15T18:03:52;6.20;76.70
810;DHT22;387;48.772;9.186;2023-02-15T18:06:38;6.10;77.00
810;DHT22;387;48.772;9.186;2023-02-15T18:09:23;6.00;77.10
810;DHT22;387;48.772;9.186;2023-02-15T18:12:20;6.00;77.40
810;DHT22;387;48.772;9.186;2023-02-15T18:14:46;6.00;77.40
810;DHT22;387;48.772;9.186;2023-02-15T18:17:13;6.00;77.60
810;DHT22;387;48.772;9.186;2023-02-15T18:19:40;5.90;77.70
810;DHT22;387;48.772;9.186;2023-02-15T18:22:11;5.90;77.80
810;DHT22;387;48.772;9.186;2023-02-15T18:24:37;5.80;77.80
810;DHT22;387;48.772;9.186;2023-02-15T18:27:03;5.80;78.10
810;DHT22;387;48.772;9.186;2023-02-15T18:29:30;5.80;78.30
810;DHT22;387;48.772;9.186;2023-02-15T18:31:56;5.70;78.60
810;DHT22;387;48.772;9.186;2023-02-15T18:34:33;5.70;78.90
810;DHT22;387;48.772;9.186;2023-02-15T18:37:03;5.70;79.00
810;DHT22;387;48.772;9.186;2023-02-15T18:39:46;5.60;79.20
810;DHT22;387;48.772;9.186;2023-02-15T18:42:21;5.60;79.30
810;DHT22;387;48.772;9.186;2023-02-15T18:44:48;5.60;79.50
810;DHT22;387;48.772;9.186;2023-02-15T18:47:14;5.60;79.50
810;DHT22;387;48.772;9.186;2023-02-15T18:49:39;5.50;79.60
810;DHT22;387;48.772;9.186;2023-02-15T18:52:05;5.40;79.70
810;DHT22;387;48.772;9.186;2023-02-15T18:54:30;5.40;80.00
810;DHT22;387;48.772;9.186;2023-02-15T18:56:57;5.40;80.60
810;DHT22;387;48.772;9.186;2023-02-15T18:59:26;5.30;80.90
810;DHT22;387;48.772;9.186;2023-02-15T19:01:53;5.30;80.90
810;DHT22;387;48.772;9.186;2023-02-15T19:04:19;5.30;80.80
810;DHT22;387;48.772;9.186;2023-02-15T19:06:46;5.30;80.60
810;DHT22;387;48.772;9.186;2023-02-15T19:09:21;5.20;80.80
810;DHT22;387;48.772;9.186;2023-02-15T19:11:55;5.20;80.90
810;DHT22;387;48.772;9.186;2023-02-15T19:16:48;5.10;80.90
810;DHT22;387;48.772;9.186;2023-02-15T19:19:16;5.00;81.10
810;DHT22;387;48.772;9.186;2023-02-15T19:21:42;5.10;81.80
810;DHT22;387;48.772;9.186;2023-02-15T19:24:15;5.10;81.70
810;DHT22;387;48.772;9.186;2023-02-15T19:26:44;5.10;81.50
810;DHT22;387;48.772;9.186;2023-02-15T19:29:12;5.10;81.70
810;DHT22;387;48.772;9.186;2023-02-15T19:31:38;5.00;81.80
810;DHT22;387;48.772;9.186;2023-02-15T19:34:22;4.90;81.90
810;DHT22;387;48.772;9.186;2023-02-15T19:37:03;4.90;82.20
810;DHT22;387;48.772;9.186;2023-02-15T19:39:36;4.90;82.20
810;DHT22;387;48.772;9.186;2023-02-15T19:42:02;4.90;82.10
810;DHT22;387;48.772;9.186;2023-02-15T19:44:28;4.90;81.90
810;DHT22;387;48.772;9.186;2023-02-15T19:46:54;4.80;82.10
810;DHT22;387;48.772;9.186;2023-02-15T19:49:20;4.80;81.90
810;DHT22;387;48.772;9.186;2023-02-15T19:51:45;4.80;81.80
810;DHT22;387;48.772;9.186;2023-02-15T19:54:27;4.80;81.90
810;DHT22;387;48.772;9.186;2023-02-15T19:56:54;4.70;81.90
810;DHT22;387;48.772;9.186;2023-02-15T19:59:23;4.70;82.10
810;DHT22;387;48.772;9.186;2023-02-15T20:01:49;4.70;82.20
810;DHT22;387;48.772;9.186;2023-02-15T20:04:15;4.70;82.10
810;DHT22;387;48.772;9.186;2023-02-15T20:06:41;4.70;81.90
810;DHT22;387;48.772;9.186;2023-02-15T20:09:10;4.60;81.90
810;DHT22;387;48.772;9.186;2023-02-15T20:11:36;4.60;81.90
810;DHT22;387;48.772;9.186;2023-02-15T20:14:01;4.60;81.80
810;DHT22;387;48.772;9.186;2023-02-15T20:16:27;4.60;81.80
810;DHT22;387;48.772;9.186;2023-02-15T20:18:54;4.60;81.70